sensor_id;sensor_type;location;lat;lon;timestamp;temperature;humidity
26821;DHT22;37186;51.394;5.454;2024-02-28T00:00:59;6.50;84.30
26821;DHT22;37186;51.394;5.454;2024-02-28T00:03:59;6.50;84.30
26821;DHT22;37186;51.394;5.454;2024-02-28T00:07:00;6.50;84.30
26821;DHT22;37186;51.394;5.454;2024-02-28T00:10:01;6.50;84.30
26821;DHT22;37186;51.394;5.454;2024-02-28T00:13:01;6.50;84.40
26821;DHT22;37186;51.394;5.454;2024-02-28T00:16:02;6.40;84.20
26821;DHT22;37186;51.394;5.454;2024-02-28T00:19:03;6.40;84.40
26821;DHT22;37186;51.394;5.454;2024-02-28T00:22:04;6.40;84.40
26821;DHT22;37186;51.394;5.454;2024-02-28T00:25:04;6.40;84.40
26821;DHT22;37186;51.394;5.454;2024-02-28T00:28:06;6.30;84.30
26821;DHT22;37186;51.394;5.454;2024-02-28T00:31:07;6.30;84.40
26821;DHT22;37186;51.394;5.454;2024-02-28T00:34:07;6.30;84.40
26821;DHT22;37186;51.394;5.454;2024-02-28T00:37:09;6.30;84.50
26821;DHT22;37186;51.394;5.454;2024-02-28T00:40:10;6.20;84.30
26821;DHT22;37186;51.394;5.454;2024-02-28T00:43:10;6.20;84.40
26821;DHT22;37186;51.394;5.454;2024-02-28T00:46:11;6.20;84.40
26821;DHT22;37186;51.394;5.454;2024-02-28T00:49:12;6.20;84.50
26821;DHT22;37186;51.394;5.454;2024-02-28T00:52:13;6.20;84.50
26821;DHT22;37186;51.394;5.454;2024-02-28T00:55:13;6.20;84.50
26821;DHT22;37186;51.394;5.454;2024-02-28T00:58:14;6.10;84.40
26821;DHT22;37186;51.394;5.454;2024-02-28T01:01:15;6.10;84.50
26821;DHT22;37186;51.394;5.454;2024-02-28T01:04:15;6.20;84.50
26821;DHT22;37186;51.394;5.454;2024-02-28T01:07:16;6.10;84.50
26821;DHT22;37186;51.394;5.454;2024-02-28T01:10:17;6.10;84.50
26821;DHT22;37186;51.394;5.454;2024-02-28T01:13:17;6.10;84.50
26821;DHT22;37186;51.394;5.454;2024-02-28T01:16:18;6.10;84.60
26821;DHT22;37186;51.394;5.454;2024-02-28T01:19:18;6.10;84.50
26821;DHT22;37186;51.394;5.454;2024-02-28T01:22:19;6.10;84.50
26821;DHT22;37186;51.394;5.454;2024-02-28T01:25:19;6.10;85.20
26821;DHT22;37186;51.394;5.454;2024-02-28T01:28:20;6.10;84.50
26821;DHT22;37186;51.394;5.454;2024-02-28T01:31:21;6.10;84.50
26821;DHT22;37186;51.394;5.454;2024-02-28T01:34:21;6.10;84.50
26821;DHT22;37186;51.394;5.454;2024-02-28T01:37:22;6.10;84.40
26821;DHT22;37186;51.394;5.454;2024-02-28T01:40:22;6.00;84.50
26821;DHT22;37186;51.394;5.454;2024-02-28T01:43:23;6.00;84.40
26821;DHT22;37186;51.394;5.454;2024-02-28T01:46:27;6.00;84.40
26821;DHT22;37186;51.394;5.454;2024-02-28T01:49:28;6.00;84.40
26821;DHT22;37186;51.394;5.454;2024-02-28T01:52:28;6.00;84.40
26821;DHT22;37186;51.394;5.454;2024-02-28T01:55:30;6.00;84.50
26821;DHT22;37186;51.394;5.454;2024-02-28T01:58:30;5.90;84.40
26821;DHT22;37186;51.394;5.454;2024-02-28T02:01:31;5.90;84.40
26821;DHT22;37186;51.394;5.454;2024-02-28T02:04:31;5.90;84.30
26821;DHT22;37186;51.394;5.454;2024-02-28T02:07:32;5.90;84.30
26821;DHT22;37186;51.394;5.454;2024-02-28T02:10:33;5.90;84.30
26821;DHT22;37186;51.394;5.454;2024-02-28T02:13:33;5.80;84.30
26821;DHT22;37186;51.394;5.454;2024-02-28T02:16:35;5.80;84.40
26821;DHT22;37186;51.394;5.454;2024-02-28T02:19:36;5.80;84.30
26821;DHT22;37186;51.394;5.454;2024-02-28T02:22:37;5.80;84.40
26821;DHT22;37186;51.394;5.454;2024-02-28T02:25:45;5.80;84.30
26821;DHT22;37186;51.394;5.454;2024-02-28T02:28:46;5.80;84.30
26821;DHT22;37186;51.394;5.454;2024-02-28T02:31:46;5.70;84.00
26821;DHT22;37186;51.394;5.454;2024-02-28T02:34:47;5.70;84.20
26821;DHT22;37186;51.394;5.454;2024-02-28T02:37:47;5.70;84.20
26821;DHT22;37186;51.394;5.454;2024-02-28T02:40:51;5.70;84.20
26821;DHT22;37186;51.394;5.454;2024-02-28T02:43:52;5.60;84.20
26821;DHT22;37186;51.394;5.454;2024-02-28T02:46:53;5.60;84.20
26821;DHT22;37186;51.394;5.454;2024-02-28T02:49:53;5.60;84.90
26821;DHT22;37186;51.394;5.454;2024-02-28T02:52:54;5.60;84.20
26821;DHT22;37186;51.394;5.454;2024-02-28T02:55:54;5.60;84.30
26821;DHT22;37186;51.394;5.454;2024-02-28T02:58:55;5.60;84.20
26821;DHT22;37186;51.394;5.454;2024-02-28T03:01:55;5.50;84.10
26821;DHT22;37186;51.394;5.454;2024-02-28T03:04:56;5.50;84.20
26821;DHT22;37186;51.394;5.454;2024-02-28T03:07:56;5.50;84.10
26821;DHT22;37186;51.394;5.454;2024-02-28T03:10:57;5.50;84.20
26821;DHT22;37186;51.394;5.454;2024-02-28T03:13:58;5.50;84.20
26821;DHT22;37186;51.394;5.454;2024-02-28T03:16:59;5.50;84.20
26821;DHT22;37186;51.394;5.454;2024-02-28T03:19:59;5.50;84.20
26821;DHT22;37186;51.394;5.454;2024-02-28T03:23:00;5.40;84.20
26821;DHT22;37186;51.394;5.454;2024-02-28T03:26:00;5.40;84.10
26821;DHT22;37186;51.394;5.454;2024-02-28T03:29:01;5.40;84.10
26821;DHT22;37186;51.394;5.454;2024-02-28T03:32:01;5.40;84.10
26821;DHT22;37186;51.394;5.454;2024-02-28T03:35:02;5.40;84.10
26821;DHT22;37186;51.394;5.454;2024-02-28T03:38:04;5.40;84.20
26821;DHT22;37186;51.394;5.454;2024-02-28T03:41:05;5.30;84.00
26821;DHT22;37186;51.394;5.454;2024-02-28T03:44:06;5.30;84.00
26821;DHT22;37186;51.394;5.454;2024-02-28T03:47:06;5.30;84.10
26821;DHT22;37186;51.394;5.454;2024-02-28T03:50:07;5.30;84.10
26821;DHT22;37186;51.394;5.454;2024-02-28T03:53:08;5.30;84.20
26821;DHT22;37186;51.394;5.454;2024-02-28T03:56:08;5.20;84.00
26821;DHT22;37186;51.394;5.454;2024-02-28T03:59:09;5.20;84.10
26821;DHT22;37186;51.394;5.454;2024-02-28T04:02:09;5.20;84.10
26821;DHT22;37186;51.394;5.454;2024-02-28T04:05:10;5.20;84.10
26821;DHT22;37186;51.394;5.454;2024-02-28T04:08:10;5.20;84.10
26821;DHT22;37186;51.394;5.454;2024-02-28T04:11:14;5.20;84.20
26821;DHT22;37186;51.394;5.454;2024-02-28T04:14:15;5.20;84.10
26821;DHT22;37186;51.394;5.454;2024-02-28T04:17:16;5.20;84.20
26821;DHT22;37186;51.394;5.454;2024-02-28T04:20:16;5.10;84.10
26821;DHT22;37186;51.394;5.454;2024-02-28T04:23:17;5.10;84.00
26821;DHT22;37186;51.394;5.454;2024-02-28T04:26:17;5.10;84.10
26821;DHT22;37186;51.394;5.454;2024-02-28T04:29:18;5.10;84.00
26821;DHT22;37186;51.394;5.454;2024-02-28T04:32:18;5.10;84.10
26821;DHT22;37186;51.394;5.454;2024-02-28T04:35:19;5.10;84.10
26821;DHT22;37186;51.394;5.454;2024-02-28T04:38:19;5.10;84.10
26821;DHT22;37186;51.394;5.454;2024-02-28T04:41:20;5.00;84.00
26821;DHT22;37186;51.394;5.454;2024-02-28T04:44:20;5.10;84.10
26821;DHT22;37186;51.394;5.454;2024-02-28T04:47:21;5.00;84.00
26821;DHT22;37186;51.394;5.454;2024-02-28T04:50:21;5.00;84.00
26821;DHT22;37186;51.394;5.454;2024-02-28T04:53:22;5.00;84.00
26821;DHT22;37186;51.394;5.454;2024-02-28T04:56:22;5.00;84.10
26821;DHT22;37186;51.394;5.454;2024-02-28T04:59:24;5.00;84.10
26821;DHT22;37186;51.394;5.454;2024-02-28T05:02:24;5.00;84.00
26821;DHT22;37186;51.394;5.454;2024-02-28T05:05:26;5.00;84.10
26821;DHT22;37186;51.394;5.454;2024-02-28T05:08:26;4.90;84.00
26821;DHT22;37186;51.394;5.454;2024-02-28T05:11:29;5.00;84.00
26821;DHT22;37186;51.394;5.454;2024-02-28T05:14:29;4.90;84.00
26821;DHT22;37186;51.394;5.454;2024-02-28T05:17:30;4.90;84.00
26821;DHT22;37186;51.394;5.454;2024-02-28T05:20:30;4.90;84.00
26821;DHT22;37186;51.394;5.454;2024-02-28T05:23:31;4.90;84.00
26821;DHT22;37186;51.394;5.454;2024-02-28T05:26:31;4.90;84.00
26821;DHT22;37186;51.394;5.454;2024-02-28T05:29:34;4.90;84.00
26821;DHT22;37186;51.394;5.454;2024-02-28T05:32:34;4.90;84.00
26821;DHT22;37186;51.394;5.454;2024-02-28T05:35:35;4.90;84.00
26821;DHT22;37186;51.394;5.454;2024-02-28T05:38:35;4.90;84.00
26821;DHT22;37186;51.394;5.454;2024-02-28T05:41:36;4.80;84.00
26821;DHT22;37186;51.394;5.454;2024-02-28T05:44:36;4.80;84.00
26821;DHT22;37186;51.394;5.454;2024-02-28T05:47:37;4.80;84.00
26821;DHT22;37186;51.394;5.454;2024-02-28T05:50:38;4.80;84.00
26821;DHT22;37186;51.394;5.454;2024-02-28T05:53:39;4.80;84.00
26821;DHT22;37186;51.394;5.454;2024-02-28T05:56:40;4.80;84.00
26821;DHT22;37186;51.394;5.454;2024-02-28T05:59:41;4.80;84.00
26821;DHT22;37186;51.394;5.454;2024-02-28T06:02:41;4.80;84.00
26821;DHT22;37186;51.394;5.454;2024-02-28T06:05:42;4.80;84.00
26821;DHT22;37186;51.394;5.454;2024-02-28T06:08:43;4.80;84.00
26821;DHT22;37186;51.394;5.454;2024-02-28T06:11:44;4.80;84.00
26821;DHT22;37186;51.394;5.454;2024-02-28T06:14:44;4.80;84.00
26821;DHT22;37186;51.394;5.454;2024-02-28T06:17:45;4.80;84.00
26821;DHT22;37186;51.394;5.454;2024-02-28T06:20:45;4.70;84.00
26821;DHT22;37186;51.394;5.454;2024-02-28T06:23:46;4.70;84.00
26821;DHT22;37186;51.394;5.454;2024-02-28T06:26:46;4.70;84.10
26821;DHT22;37186;51.394;5.454;2024-02-28T06:29:47;4.70;84.10
26821;DHT22;37186;51.394;5.454;2024-02-28T06:32:49;4.80;84.20
26821;DHT22;37186;51.394;5.454;2024-02-28T06:35:49;4.80;84.10
26821;DHT22;37186;51.394;5.454;2024-02-28T06:38:50;4.80;84.20
26821;DHT22;37186;51.394;5.454;2024-02-28T06:41:51;4.80;84.20
26821;DHT22;37186;51.394;5.454;2024-02-28T06:44:52;4.80;84.20
26821;DHT22;37186;51.394;5.454;2024-02-28T06:47:52;4.80;84.30
26821;DHT22;37186;51.394;5.454;2024-02-28T06:50:53;4.80;84.30
26821;DHT22;37186;51.394;5.454;2024-02-28T06:53:53;4.80;84.40
26821;DHT22;37186;51.394;5.454;2024-02-28T06:56:55;4.90;84.40
26821;DHT22;37186;51.394;5.454;2024-02-28T06:59:55;4.90;84.40
26821;DHT22;37186;51.394;5.454;2024-02-28T07:02:56;4.90;84.50
26821;DHT22;37186;51.394;5.454;2024-02-28T07:05:56;4.90;84.40
26821;DHT22;37186;51.394;5.454;2024-02-28T07:08:57;5.00;84.50
26821;DHT22;37186;51.394;5.454;2024-02-28T07:11:58;5.00;84.50
26821;DHT22;37186;51.394;5.454;2024-02-28T07:14:58;5.00;84.50
26821;DHT22;37186;51.394;5.454;2024-02-28T07:17:59;5.00;84.50
26821;DHT22;37186;51.394;5.454;2024-02-28T07:20:59;5.10;84.50
26821;DHT22;37186;51.394;5.454;2024-02-28T07:24:00;5.10;84.60
26821;DHT22;37186;51.394;5.454;2024-02-28T07:27:01;5.10;84.60
26821;DHT22;37186;51.394;5.454;2024-02-28T07:30:02;5.10;84.60
26821;DHT22;37186;51.394;5.454;2024-02-28T07:33:07;5.20;84.70
26821;DHT22;37186;51.394;5.454;2024-02-28T07:36:07;5.20;84.70
26821;DHT22;37186;51.394;5.454;2024-02-28T07:39:08;5.20;84.70
26821;DHT22;37186;51.394;5.454;2024-02-28T07:42:13;5.20;84.70
26821;DHT22;37186;51.394;5.454;2024-02-28T07:45:13;5.20;84.70
26821;DHT22;37186;51.394;5.454;2024-02-28T07:48:14;5.20;84.70
26821;DHT22;37186;51.394;5.454;2024-02-28T07:51:14;5.30;84.80
26821;DHT22;37186;51.394;5.454;2024-02-28T07:54:15;5.30;84.80
26821;DHT22;37186;51.394;5.454;2024-02-28T07:57:17;5.30;84.80
26821;DHT22;37186;51.394;5.454;2024-02-28T08:00:17;5.30;84.90
26821;DHT22;37186;51.394;5.454;2024-02-28T08:03:19;5.40;84.90
26821;DHT22;37186;51.394;5.454;2024-02-28T08:06:20;5.40;84.90
26821;DHT22;37186;51.394;5.454;2024-02-28T08:09:22;5.40;84.90
26821;DHT22;37186;51.394;5.454;2024-02-28T08:12:23;5.50;84.90
26821;DHT22;37186;51.394;5.454;2024-02-28T08:15:23;5.50;85.00
26821;DHT22;37186;51.394;5.454;2024-02-28T08:18:24;5.50;85.00
26821;DHT22;37186;51.394;5.454;2024-02-28T08:21:25;5.50;85.20
26821;DHT22;37186;51.394;5.454;2024-02-28T08:24:26;5.50;84.90
26821;DHT22;37186;51.394;5.454;2024-02-28T08:27:28;5.60;85.00
26821;DHT22;37186;51.394;5.454;2024-02-28T08:30:28;5.60;85.00
26821;DHT22;37186;51.394;5.454;2024-02-28T08:33:29;5.60;85.00
26821;DHT22;37186;51.394;5.454;2024-02-28T08:36:29;5.60;85.20
26821;DHT22;37186;51.394;5.454;2024-02-28T08:39:30;5.70;85.20
26821;DHT22;37186;51.394;5.454;2024-02-28T08:42:30;5.70;85.20
26821;DHT22;37186;51.394;5.454;2024-02-28T08:45:31;5.70;85.30
26821;DHT22;37186;51.394;5.454;2024-02-28T08:48:32;5.80;85.40
26821;DHT22;37186;51.394;5.454;2024-02-28T08:51:33;5.80;85.40
26821;DHT22;37186;51.394;5.454;2024-02-28T08:54:33;5.80;85.40
26821;DHT22;37186;51.394;5.454;2024-02-28T08:57:34;5.90;85.50
26821;DHT22;37186;51.394;5.454;2024-02-28T09:00:35;5.90;85.60
26821;DHT22;37186;51.394;5.454;2024-02-28T09:03:35;6.00;85.60
26821;DHT22;37186;51.394;5.454;2024-02-28T09:06:36;6.00;85.60
26821;DHT22;37186;51.394;5.454;2024-02-28T09:09:41;6.00;85.90
26821;DHT22;37186;51.394;5.454;2024-02-28T09:12:42;6.10;85.70
26821;DHT22;37186;51.394;5.454;2024-02-28T09:15:42;6.10;85.80
26821;DHT22;37186;51.394;5.454;2024-02-28T09:18:43;6.20;85.70
26821;DHT22;37186;51.394;5.454;2024-02-28T09:21:44;6.20;85.90
26821;DHT22;37186;51.394;5.454;2024-02-28T09:24:44;6.20;85.90
26821;DHT22;37186;51.394;5.454;2024-02-28T09:27:45;6.30;86.00
26821;DHT22;37186;51.394;5.454;2024-02-28T09:30:45;6.40;86.00
26821;DHT22;37186;51.394;5.454;2024-02-28T09:33:48;6.40;86.00
26821;DHT22;37186;51.394;5.454;2024-02-28T09:36:49;6.50;86.10
26821;DHT22;37186;51.394;5.454;2024-02-28T09:39:49;6.60;86.30
26821;DHT22;37186;51.394;5.454;2024-02-28T09:42:52;6.60;86.30
26821;DHT22;37186;51.394;5.454;2024-02-28T09:45:59;6.70;86.40
26821;DHT22;37186;51.394;5.454;2024-02-28T09:49:07;6.70;86.40
26821;DHT22;37186;51.394;5.454;2024-02-28T09:52:08;6.80;86.40
26821;DHT22;37186;51.394;5.454;2024-02-28T09:55:08;6.90;86.60
26821;DHT22;37186;51.394;5.454;2024-02-28T09:58:10;6.90;86.50
26821;DHT22;37186;51.394;5.454;2024-02-28T10:01:11;7.00;86.40
26821;DHT22;37186;51.394;5.454;2024-02-28T10:04:14;7.00;86.60
26821;DHT22;37186;51.394;5.454;2024-02-28T10:07:15;7.10;86.70
26821;DHT22;37186;51.394;5.454;2024-02-28T10:10:16;7.20;86.60
26821;DHT22;37186;51.394;5.454;2024-02-28T10:13:17;7.20;86.70
26821;DHT22;37186;51.394;5.454;2024-02-28T10:16:18;7.30;86.70
26821;DHT22;37186;51.394;5.454;2024-02-28T10:19:19;7.40;86.70
26821;DHT22;37186;51.394;5.454;2024-02-28T10:22:19;7.40;86.70
26821;DHT22;37186;51.394;5.454;2024-02-28T10:25:20;7.50;86.90
26821;DHT22;37186;51.394;5.454;2024-02-28T10:28:21;7.50;86.80
26821;DHT22;37186;51.394;5.454;2024-02-28T10:31:21;7.60;86.70
26821;DHT22;37186;51.394;5.454;2024-02-28T10:34:22;7.60;86.60
26821;DHT22;37186;51.394;5.454;2024-02-28T10:37:23;7.70;86.80
26821;DHT22;37186;51.394;5.454;2024-02-28T10:40:24;7.70;86.70
26821;DHT22;37186;51.394;5.454;2024-02-28T10:43:28;7.80;86.80
26821;DHT22;37186;51.394;5.454;2024-02-28T10:46:31;7.80;86.80
26821;DHT22;37186;51.394;5.454;2024-02-28T10:49:31;7.80;86.90
26821;DHT22;37186;51.394;5.454;2024-02-28T10:52:33;7.90;87.00
26821;DHT22;37186;51.394;5.454;2024-02-28T10:55:40;8.00;87.10
26821;DHT22;37186;51.394;5.454;2024-02-28T10:58:51;8.00;87.10
26821;DHT22;37186;51.394;5.454;2024-02-28T11:01:52;8.10;87.10
26821;DHT22;37186;51.394;5.454;2024-02-28T11:04:53;8.20;87.20
26821;DHT22;37186;51.394;5.454;2024-02-28T11:07:54;8.20;87.20
26821;DHT22;37186;51.394;5.454;2024-02-28T11:11:01;8.30;87.20
26821;DHT22;37186;51.394;5.454;2024-02-28T11:14:02;8.30;87.00
26821;DHT22;37186;51.394;5.454;2024-02-28T11:17:04;8.30;87.10
26821;DHT22;37186;51.394;5.454;2024-02-28T11:20:12;8.40;87.20
26821;DHT22;37186;51.394;5.454;2024-02-28T11:23:13;8.40;87.20
26821;DHT22;37186;51.394;5.454;2024-02-28T11:26:15;8.50;87.20
26821;DHT22;37186;51.394;5.454;2024-02-28T11:29:16;8.50;87.30
26821;DHT22;37186;51.394;5.454;2024-02-28T11:32:16;8.60;87.30
26821;DHT22;37186;51.394;5.454;2024-02-28T11:35:17;8.60;87.20
26821;DHT22;37186;51.394;5.454;2024-02-28T11:38:17;8.70;87.30
26821;DHT22;37186;51.394;5.454;2024-02-28T11:41:27;8.70;87.30
26821;DHT22;37186;51.394;5.454;2024-02-28T11:44:28;8.80;87.30
26821;DHT22;37186;51.394;5.454;2024-02-28T11:47:28;8.80;87.20
26821;DHT22;37186;51.394;5.454;2024-02-28T11:50:29;8.90;87.40
26821;DHT22;37186;51.394;5.454;2024-02-28T11:53:30;8.90;87.30
26821;DHT22;37186;51.394;5.454;2024-02-28T11:56:31;8.90;87.30
26821;DHT22;37186;51.394;5.454;2024-02-28T11:59:32;9.00;87.40
26821;DHT22;37186;51.394;5.454;2024-02-28T12:02:32;9.00;87.20
26821;DHT22;37186;51.394;5.454;2024-02-28T12:05:33;9.10;87.30
26821;DHT22;37186;51.394;5.454;2024-02-28T12:08:33;9.10;87.30
26821;DHT22;37186;51.394;5.454;2024-02-28T12:11:35;9.20;87.30
26821;DHT22;37186;51.394;5.454;2024-02-28T12:14:37;9.20;87.30
26821;DHT22;37186;51.394;5.454;2024-02-28T12:17:42;9.20;87.20
26821;DHT22;37186;51.394;5.454;2024-02-28T12:20:42;9.30;87.30
26821;DHT22;37186;51.394;5.454;2024-02-28T12:23:43;9.30;87.30
26821;DHT22;37186;51.394;5.454;2024-02-28T12:26:44;9.30;87.20
26821;DHT22;37186;51.394;5.454;2024-02-28T12:29:44;9.30;87.10
26821;DHT22;37186;51.394;5.454;2024-02-28T12:32:45;9.30;87.10
26821;DHT22;37186;51.394;5.454;2024-02-28T12:35:45;9.40;87.20
26821;DHT22;37186;51.394;5.454;2024-02-28T12:38:46;9.40;87.20
26821;DHT22;37186;51.394;5.454;2024-02-28T12:41:47;9.40;87.20
26821;DHT22;37186;51.394;5.454;2024-02-28T12:44:48;9.50;87.30
26821;DHT22;37186;51.394;5.454;2024-02-28T12:47:49;9.50;87.20
26821;DHT22;37186;51.394;5.454;2024-02-28T12:50:49;9.50;87.20
26821;DHT22;37186;51.394;5.454;2024-02-28T12:53:50;9.50;87.20
26821;DHT22;37186;51.394;5.454;2024-02-28T12:56:51;9.60;87.20
26821;DHT22;37186;51.394;5.454;2024-02-28T12:59:51;9.60;87.20
26821;DHT22;37186;51.394;5.454;2024-02-28T13:02:52;9.60;87.20
26821;DHT22;37186;51.394;5.454;2024-02-28T13:05:52;9.60;87.20
26821;DHT22;37186;51.394;5.454;2024-02-28T13:08:53;9.60;87.10
26821;DHT22;37186;51.394;5.454;2024-02-28T13:11:53;9.60;87.20
26821;DHT22;37186;51.394;5.454;2024-02-28T13:14:54;9.60;87.10
26821;DHT22;37186;51.394;5.454;2024-02-28T13:17:54;9.70;87.20
26821;DHT22;37186;51.394;5.454;2024-02-28T13:20:55;9.70;87.20
26821;DHT22;37186;51.394;5.454;2024-02-28T13:23:56;9.70;87.20
26821;DHT22;37186;51.394;5.454;2024-02-28T13:26:56;9.80;87.30
26821;DHT22;37186;51.394;5.454;2024-02-28T13:29:57;9.80;87.20
26821;DHT22;37186;51.394;5.454;2024-02-28T13:32:57;9.80;87.40
26821;DHT22;37186;51.394;5.454;2024-02-28T13:35:58;9.80;87.30
26821;DHT22;37186;51.394;5.454;2024-02-28T13:38:58;9.80;87.40
26821;DHT22;37186;51.394;5.454;2024-02-28T13:41:59;9.90;87.30
26821;DHT22;37186;51.394;5.454;2024-02-28T13:44:59;9.90;87.30
26821;DHT22;37186;51.394;5.454;2024-02-28T13:48:00;9.90;87.30
26821;DHT22;37186;51.394;5.454;2024-02-28T13:51:01;9.90;87.30
26821;DHT22;37186;51.394;5.454;2024-02-28T13:54:02;9.90;87.30
26821;DHT22;37186;51.394;5.454;2024-02-28T13:57:03;9.90;87.30
26821;DHT22;37186;51.394;5.454;2024-02-28T14:00:05;10.00;87.40
26821;DHT22;37186;51.394;5.454;2024-02-28T14:03:08;10.00;87.50
26821;DHT22;37186;51.394;5.454;2024-02-28T14:06:09;10.00;87.50
26821;DHT22;37186;51.394;5.454;2024-02-28T14:09:09;10.00;87.50
26821;DHT22;37186;51.394;5.454;2024-02-28T14:12:10;10.00;87.40
26821;DHT22;37186;51.394;5.454;2024-02-28T14:15:11;10.10;87.40
26821;DHT22;37186;51.394;5.454;2024-02-28T14:18:12;10.10;87.40
26821;DHT22;37186;51.394;5.454;2024-02-28T14:21:13;10.10;87.40
26821;DHT22;37186;51.394;5.454;2024-02-28T14:24:14;10.10;87.40
26821;DHT22;37186;51.394;5.454;2024-02-28T14:27:18;10.20;87.40
26821;DHT22;37186;51.394;5.454;2024-02-28T14:30:20;10.20;87.50
26821;DHT22;37186;51.394;5.454;2024-02-28T14:33:21;10.20;87.40
26821;DHT22;37186;51.394;5.454;2024-02-28T14:36:22;10.30;87.50
26821;DHT22;37186;51.394;5.454;2024-02-28T14:39:22;10.30;87.50
26821;DHT22;37186;51.394;5.454;2024-02-28T14:42:23;10.30;87.50
26821;DHT22;37186;51.394;5.454;2024-02-28T14:45:23;10.30;87.50
26821;DHT22;37186;51.394;5.454;2024-02-28T14:48:26;10.30;87.50
26821;DHT22;37186;51.394;5.454;2024-02-28T14:51:28;10.40;87.60
26821;DHT22;37186;51.394;5.454;2024-02-28T14:54:30;10.40;87.60
26821;DHT22;37186;51.394;5.454;2024-02-28T14:57:30;10.40;88.30
26821;DHT22;37186;51.394;5.454;2024-02-28T15:00:31;10.50;87.60
26821;DHT22;37186;51.394;5.454;2024-02-28T15:03:32;10.50;87.80
26821;DHT22;37186;51.394;5.454;2024-02-28T15:06:32;10.50;87.70
26821;DHT22;37186;51.394;5.454;2024-02-28T15:09:33;10.60;87.80
26821;DHT22;37186;51.394;5.454;2024-02-28T15:12:34;10.60;87.80
26821;DHT22;37186;51.394;5.454;2024-02-28T15:15:35;10.60;87.80
26821;DHT22;37186;51.394;5.454;2024-02-28T15:18:35;10.70;87.80
26821;DHT22;37186;51.394;5.454;2024-02-28T15:21:36;10.70;87.80
26821;DHT22;37186;51.394;5.454;2024-02-28T15:24:37;10.80;87.80
26821;DHT22;37186;51.394;5.454;2024-02-28T15:27:39;10.70;87.60
26821;DHT22;37186;51.394;5.454;2024-02-28T15:30:40;10.80;87.60
26821;DHT22;37186;51.394;5.454;2024-02-28T15:33:40;10.80;87.60
26821;DHT22;37186;51.394;5.454;2024-02-28T15:36:41;10.80;87.60
26821;DHT22;37186;51.394;5.454;2024-02-28T15:39:41;10.80;87.60
26821;DHT22;37186;51.394;5.454;2024-02-28T15:42:42;10.90;87.70
26821;DHT22;37186;51.394;5.454;2024-02-28T15:45:42;10.90;87.60
26821;DHT22;37186;51.394;5.454;2024-02-28T15:48:43;10.90;87.50
26821;DHT22;37186;51.394;5.454;2024-02-28T15:51:45;10.90;87.40
26821;DHT22;37186;51.394;5.454;2024-02-28T15:54:45;10.90;87.40
26821;DHT22;37186;51.394;5.454;2024-02-28T15:57:46;10.90;87.40
26821;DHT22;37186;51.394;5.454;2024-02-28T16:00:47;10.90;87.50
26821;DHT22;37186;51.394;5.454;2024-02-28T16:03:50;10.90;88.20
26821;DHT22;37186;51.394;5.454;2024-02-28T16:06:51;10.90;87.40
26821;DHT22;37186;51.394;5.454;2024-02-28T16:09:52;10.90;87.40
26821;DHT22;37186;51.394;5.454;2024-02-28T16:12:52;10.90;87.40
26821;DHT22;37186;51.394;5.454;2024-02-28T16:15:53;10.90;87.40
26821;DHT22;37186;51.394;5.454;2024-02-28T16:18:54;10.90;87.30
26821;DHT22;37186;51.394;5.454;2024-02-28T16:21:54;10.90;87.40
26821;DHT22;37186;51.394;5.454;2024-02-28T16:24:55;10.90;87.30
26821;DHT22;37186;51.394;5.454;2024-02-28T16:27:55;10.90;87.30
26821;DHT22;37186;51.394;5.454;2024-02-28T16:30:56;10.90;87.30
26821;DHT22;37186;51.394;5.454;2024-02-28T16:33:58;10.90;87.30
26821;DHT22;37186;51.394;5.454;2024-02-28T16:36:59;10.90;87.30
26821;DHT22;37186;51.394;5.454;2024-02-28T16:40:02;10.90;87.30
26821;DHT22;37186;51.394;5.454;2024-02-28T16:43:03;10.90;87.30
26821;DHT22;37186;51.394;5.454;2024-02-28T16:46:03;10.90;87.30
26821;DHT22;37186;51.394;5.454;2024-02-28T16:49:04;10.90;87.20
26821;DHT22;37186;51.394;5.454;2024-02-28T16:52:05;10.90;87.30
26821;DHT22;37186;51.394;5.454;2024-02-28T16:55:06;10.90;87.20
26821;DHT22;37186;51.394;5.454;2024-02-28T16:58:07;10.90;87.20
26821;DHT22;37186;51.394;5.454;2024-02-28T17:01:12;10.90;87.20
26821;DHT22;37186;51.394;5.454;2024-02-28T17:04:13;10.90;87.20
26821;DHT22;37186;51.394;5.454;2024-02-28T17:07:14;10.90;87.20
26821;DHT22;37186;51.394;5.454;2024-02-28T17:10:19;10.80;87.10
26821;DHT22;37186;51.394;5.454;2024-02-28T17:13:19;10.80;87.10
26821;DHT22;37186;51.394;5.454;2024-02-28T17:16:20;10.80;87.10
26821;DHT22;37186;51.394;5.454;2024-02-28T17:19:20;10.80;87.60
26821;DHT22;37186;51.394;5.454;2024-02-28T17:22:21;10.80;87.10
26821;DHT22;37186;51.394;5.454;2024-02-28T17:25:22;10.80;87.10
26821;DHT22;37186;51.394;5.454;2024-02-28T17:28:22;10.80;87.10
26821;DHT22;37186;51.394;5.454;2024-02-28T17:31:23;10.80;87.10
26821;DHT22;37186;51.394;5.454;2024-02-28T17:34:24;10.70;87.10
26821;DHT22;37186;51.394;5.454;2024-02-28T17:37:24;10.70;87.10
26821;DHT22;37186;51.394;5.454;2024-02-28T17:40:25;10.70;87.10
26821;DHT22;37186;51.394;5.454;2024-02-28T17:43:25;10.70;87.10
26821;DHT22;37186;51.394;5.454;2024-02-28T17:46:26;10.70;87.20
26821;DHT22;37186;51.394;5.454;2024-02-28T17:49:26;10.70;87.10
26821;DHT22;37186;51.394;5.454;2024-02-28T17:52:27;10.70;87.10
26821;DHT22;37186;51.394;5.454;2024-02-28T17:55:28;10.60;87.10
26821;DHT22;37186;51.394;5.454;2024-02-28T17:58:28;10.60;87.20
26821;DHT22;37186;51.394;5.454;2024-02-28T18:01:29;10.60;87.10
26821;DHT22;37186;51.394;5.454;2024-02-28T18:04:30;10.60;87.10
26821;DHT22;37186;51.394;5.454;2024-02-28T18:07:30;10.60;87.10
26821;DHT22;37186;51.394;5.454;2024-02-28T18:10:32;10.60;87.20
26821;DHT22;37186;51.394;5.454;2024-02-28T18:13:33;10.60;87.10
26821;DHT22;37186;51.394;5.454;2024-02-28T18:16:33;10.60;87.10
26821;DHT22;37186;51.394;5.454;2024-02-28T18:19:34;10.50;87.10
26821;DHT22;37186;51.394;5.454;2024-02-28T18:22:34;10.50;87.10
26821;DHT22;37186;51.394;5.454;2024-02-28T18:25:35;10.50;87.00
26821;DHT22;37186;51.394;5.454;2024-02-28T18:28:36;10.50;87.00
26821;DHT22;37186;51.394;5.454;2024-02-28T18:31:39;10.50;87.10
26821;DHT22;37186;51.394;5.454;2024-02-28T18:34:41;10.50;87.00
26821;DHT22;37186;51.394;5.454;2024-02-28T18:37:42;10.40;87.10
26821;DHT22;37186;51.394;5.454;2024-02-28T18:40:42;10.40;87.00
26821;DHT22;37186;51.394;5.454;2024-02-28T18:43:43;10.40;87.00
26821;DHT22;37186;51.394;5.454;2024-02-28T18:46:45;10.40;87.00
26821;DHT22;37186;51.394;5.454;2024-02-28T18:49:45;10.40;87.00
26821;DHT22;37186;51.394;5.454;2024-02-28T18:52:46;10.30;87.00
26821;DHT22;37186;51.394;5.454;2024-02-28T18:55:46;10.30;87.00
26821;DHT22;37186;51.394;5.454;2024-02-28T18:58:47;10.30;87.00
26821;DHT22;37186;51.394;5.454;2024-02-28T19:01:47;10.30;87.00
26821;DHT22;37186;51.394;5.454;2024-02-28T19:04:50;10.30;87.10
26821;DHT22;37186;51.394;5.454;2024-02-28T19:07:50;10.30;87.00
26821;DHT22;37186;51.394;5.454;2024-02-28T19:10:51;10.30;87.00
26821;DHT22;37186;51.394;5.454;2024-02-28T19:13:53;10.20;87.00
26821;DHT22;37186;51.394;5.454;2024-02-28T19:16:54;10.20;87.00